Lemoore Naval Air Station (Reeves Field) Airport Lemoore US
ICAO: KNLC
IATA: NLC
Category: Medium
Scheduled Services: No

Elevation: 232 ft
TransAlt. 18000 ft.

Airport Communications:
APP:118.15
ATIS:26.76
CLNC DEL:124.1
DEP:118.15
GND:121.65
BASE OPS:29.93
PMSV METRO:31.7
TWR:128.3

KNLC Zoom In..

If you have problems with the map follow the link
https://www.worldairports.se/pages/airport.php?
ICAO=KNLC

Runways:

(A) RW 14L length 13500 ft width 200 ft
---- / hdg 142

(B) RW 14R length 13497 ft width 200 ft
---- / hdg 142

(C) RW 32L length 13497 ft width 200 ft
---- / hdg 322

(D) RW 32R length 13500 ft width 200 ft
---- / hdg 322

Location; KNLC
Day. 16 / Time. 02.56 Zulu
* Altimeter: 30.09
* Temperature: 09° c. 48.2°f.
* Wind from: 000° Speed 00 kn.
Dewpoint: 02° c.
Visibility: 4 Statute Miles.
Clouds: Broken 22000 ft.
Conditions: Haze.

KNLC 160256Z 00000KT 4SM HZ BKN220 09/02 A3009 RMK AO2 SLP190 RH/60 T00940022 53000 $


Wind - Calm.

 
 
jpsmedia.com for Web Design worldairports.se 2018   terms of use